Главная страница
METAR-TAF:

METAR-TAF

Аэропорты :

Актау, Казахстан

широта: 43-52-12N, долгота: 051-06E, высота над уровнем моря: 22 м

Текущие метеонаблюдения

Эта сводка был подготовлена 20 минут назад, в 06:30 UTC
Ветер 12 Узел от юго-восточный
Температура 17°C
Влажность 39%
Давление 1021 hPa
Видимость 10 км и более
Нет облачности ниже 1500 м, и нет кучево-дождевой облачности

METAR: UATE 200630Z 13006MPS CAVOK 17/03 Q1021 R12/0///70 NOSIG RMK QFE764/1019

Время: 11:50 (06:50 UTC)

Прогноз

Эта сводка был подготовлена 1 час и 47 минут назад, в 05:03 UTC
Прогноз действительный с 20-го 06 UTC до 21-го 06 UTC
Ветер 14 Узел от юго-юго-восточный с порывами до 25 Узел
Видимость 10 км и более
Нет облачности ниже 1500 м, и нет кучево-дождевой облачности

TAF: UATE 200503Z 2006/2106 16007G13MPS CAVOK TX20/2009Z TN08/2102Z

Метеонаблюдения и прогнозы для более 4000 аэропортов (сводки METAR и TAF).

Имеющиеся станции представлены на карте желтыми и красными точками.

Чтобы увидеть название станции, наведите на нее мышь.

Затем щелкните, чтобы увидеть метеонаблюдения и метеопрогнозы.

Управление картой: чтобы увеличить масштаб, щелкните зеленые кнопки с черным крестиком; чтобы уменьшить масштаб, щелкните зеленую кнопку с тире; для просмотра соседних карт щелкайте зеленые стрелки.


METAR-TAF: